TimeHST,TemperatureF,Dew PointF,Humidity,Sea Level PressureIn,VisibilityMPH,Wind Direction,Wind SpeedMPH,Gust SpeedMPH,PrecipitationIn,Events,Conditions,WindDirDegrees,DateUTC
12:53 AM,66.0,60.1,81,30.06,10.0,SW,6.9,-,N/A,,Partly Cloudy,230,2013-12-12 10:53:00
1:53 AM,66.9,57.9,73,30.05,10.0,WSW,10.4,-,N/A,,Partly Cloudy,240,2013-12-12 11:53:00
2:53 AM,66.9,57.0,70,30.04,10.0,WSW,9.2,-,N/A,,Partly Cloudy,240,2013-12-12 12:53:00
3:53 AM,66.0,57.9,75,30.03,10.0,WSW,8.1,-,N/A,,Partly Cloudy,240,2013-12-12 13:53:00
4:53 AM,66.0,60.1,81,30.03,10.0,WSW,8.1,-,N/A,,Partly Cloudy,240,2013-12-12 14:53:00
5:53 AM,66.0,62.1,87,30.05,10.0,WSW,8.1,-,0.00,,Mostly Cloudy,240,2013-12-12 15:53:00
6:53 AM,66.0,63.0,90,30.06,10.0,SSW,4.6,-,N/A,,Mostly Cloudy,210,2013-12-12 16:53:00
7:53 AM,70.0,61.0,73,30.08,10.0,SW,5.8,-,N/A,,Mostly Cloudy,220,2013-12-12 17:53:00
8:53 AM,75.9,66.0,71,30.09,10.0,South,6.9,-,N/A,,Scattered Clouds,180,2013-12-12 18:53:00
9:53 AM,73.9,69.1,85,30.10,10.0,Variable,5.8,-,N/A,,Scattered Clouds,0,2013-12-12 19:53:00
10:53 AM,77.0,70.0,79,30.08,10.0,SE,10.4,-,N/A,,Mostly Cloudy,130,2013-12-12 20:53:00
11:53 AM,75.9,69.1,79,30.05,10.0,SSE,10.4,19.6,N/A,,Mostly Cloudy,150,2013-12-12 21:53:00
12:53 PM,81.0,69.1,67,30.00,10.0,SE,11.5,-,N/A,,Mostly Cloudy,130,2013-12-12 22:53:00
1:23 PM,79.0,69.1,72,29.99,10.0,SE,12.7,-,N/A,,Overcast,130,2013-12-12 23:23:00
1:53 PM,78.1,70.0,76,29.97,10.0,ESE,12.7,-,N/A,,Mostly Cloudy,120,2013-12-12 23:53:00
2:53 PM,78.1,69.1,74,29.97,10.0,ESE,12.7,-,N/A,,Overcast,120,2013-12-13 00:53:00
3:53 PM,77.0,69.1,76,29.98,10.0,SE,13.8,-,N/A,,Mostly Cloudy,130,2013-12-13 01:53:00
4:53 PM,75.9,68.0,76,29.99,10.0,SE,11.5,-,N/A,,Mostly Cloudy,130,2013-12-13 02:53:00
5:53 PM,73.9,68.0,82,30.02,10.0,South,4.6,-,N/A,,Scattered Clouds,180,2013-12-13 03:53:00
6:53 PM,73.0,69.1,87,30.05,10.0,Calm,Calm,-,N/A,,Mostly Cloudy,0,2013-12-13 04:53:00
7:53 PM,71.1,68.0,90,30.07,10.0,South,3.5,-,N/A,,Scattered Clouds,170,2013-12-13 05:53:00
8:53 PM,71.1,66.9,87,30.09,10.0,SSW,4.6,-,N/A,,Partly Cloudy,200,2013-12-13 06:53:00
9:53 PM,70.0,66.0,87,30.11,10.0,SSW,4.6,-,N/A,,Clear,200,2013-12-13 07:53:00
10:53 PM,68.0,66.0,93,30.09,10.0,SW,3.5,-,N/A,,Clear,230,2013-12-13 08:53:00
11:53 PM,68.0,66.0,93,30.08,10.0,SW,6.9,-,N/A,,Clear,220,2013-12-13 09:53:00